createdAt,value
2022-10-21T00:02:13.143Z,19.86
2022-10-21T00:05:15.925Z,19.87
2022-10-21T00:08:20.447Z,19.86
2022-10-21T00:11:23.012Z,19.86
2022-10-21T00:14:25.017Z,19.83
2022-10-21T00:17:27.254Z,19.85
2022-10-21T00:20:29.235Z,19.82
2022-10-21T00:23:31.435Z,19.81
2022-10-21T00:26:37.642Z,19.79
2022-10-21T00:29:41.009Z,19.81
2022-10-21T00:32:42.857Z,19.76
2022-10-21T00:35:54.693Z,19.78
2022-10-21T00:38:57.228Z,19.73
2022-10-21T00:42:00.672Z,19.76
2022-10-21T00:45:16.272Z,19.75
2022-10-21T00:48:36.986Z,19.75
2022-10-21T00:51:39.188Z,19.75
2022-10-21T00:54:43.225Z,19.72
2022-10-21T00:57:45.499Z,19.72
2022-10-21T01:00:47.819Z,19.71
2022-10-21T01:03:50.830Z,19.73
2022-10-21T01:06:55.313Z,19.71
2022-10-21T01:09:57.562Z,19.72
2022-10-21T01:13:04.217Z,19.72
2022-10-21T01:16:47.362Z,19.71
2022-10-21T01:20:08.207Z,19.68
2022-10-21T01:23:44.393Z,19.68
2022-10-21T01:27:03.837Z,19.66
2022-10-21T01:30:35.262Z,19.66
2022-10-21T01:33:52.319Z,19.65
2022-10-21T01:37:09.693Z,19.63
2022-10-21T01:40:20.137Z,19.61
2022-10-21T01:43:31.306Z,19.63
2022-10-21T01:46:48.724Z,19.62
2022-10-21T01:50:04.906Z,19.62
2022-10-21T01:53:10.319Z,19.59
2022-10-21T01:56:14.620Z,19.57
2022-10-21T01:59:19.867Z,19.58
2022-10-21T02:02:26.493Z,19.59
2022-10-21T02:05:32.195Z,19.55
2022-10-21T02:08:34.676Z,19.57
2022-10-21T02:11:39.003Z,19.55
2022-10-21T02:14:48.795Z,19.55
2022-10-21T02:17:57.826Z,19.54
2022-10-21T02:21:13.165Z,19.55
2022-10-21T02:24:37.850Z,19.55
2022-10-21T02:27:39.888Z,19.54
2022-10-21T02:30:58.129Z,19.52
2022-10-21T02:34:12.226Z,19.50
2022-10-21T02:37:23.948Z,19.54
2022-10-21T02:40:25.983Z,19.52
2022-10-21T02:43:48.350Z,19.51
2022-10-21T02:46:50.844Z,19.55
2022-10-21T02:49:53.021Z,19.54
2022-10-21T02:52:55.122Z,19.54
2022-10-21T02:55:57.774Z,19.51
2022-10-21T02:58:59.779Z,19.51
2022-10-21T03:02:02.328Z,19.52
2022-10-21T03:05:04.707Z,19.51
2022-10-21T03:08:07.030Z,19.51
2022-10-21T03:11:09.037Z,19.50
2022-10-21T03:14:11.570Z,19.50
2022-10-21T03:17:13.707Z,19.50
2022-10-21T03:20:16.223Z,19.50
2022-10-21T03:23:19.701Z,19.50
2022-10-21T03:26:22.164Z,19.50
2022-10-21T03:29:24.235Z,19.51
2022-10-21T03:32:26.533Z,19.50
2022-10-21T03:35:28.715Z,19.50
2022-10-21T03:38:31.439Z,19.50
2022-10-21T03:41:34.087Z,19.48
2022-10-21T03:44:36.353Z,19.51
2022-10-21T03:47:38.790Z,19.50
2022-10-21T03:50:41.155Z,19.48
2022-10-21T03:53:43.882Z,19.48
2022-10-21T03:56:47.072Z,19.48
2022-10-21T03:59:49.026Z,19.48
2022-10-21T04:02:51.583Z,19.47
2022-10-21T04:05:53.682Z,19.48
2022-10-21T04:08:56.243Z,19.51
2022-10-21T04:11:58.561Z,19.47
2022-10-21T04:15:03.089Z,19.47
2022-10-21T04:18:06.428Z,19.45
2022-10-21T04:21:09.218Z,19.45
2022-10-21T04:24:11.883Z,19.44
2022-10-21T04:27:14.244Z,19.44
2022-10-21T04:30:16.440Z,19.45
2022-10-21T04:33:18.817Z,19.44
2022-10-21T04:36:20.792Z,19.44
2022-10-21T04:39:23.051Z,19.44
2022-10-21T04:42:25.127Z,19.44
2022-10-21T04:45:28.040Z,19.41
2022-10-21T04:48:30.407Z,19.42
2022-10-21T04:51:32.969Z,19.42
2022-10-21T04:54:35.479Z,19.44
2022-10-21T04:57:37.959Z,19.41
2022-10-21T05:00:40.044Z,19.41
2022-10-21T05:03:42.373Z,19.38
2022-10-21T05:06:44.529Z,19.39
2022-10-21T05:09:48.296Z,19.41
2022-10-21T05:12:50.648Z,19.38
2022-10-21T05:15:53.159Z,19.41
2022-10-21T05:18:55.274Z,19.38
2022-10-21T05:21:57.766Z,19.38
2022-10-21T05:24:59.940Z,19.39
2022-10-21T05:28:02.550Z,19.39
2022-10-21T05:31:04.592Z,19.39
2022-10-21T05:34:07.256Z,19.38
2022-10-21T05:37:09.240Z,19.36
2022-10-21T05:40:12.074Z,19.39
2022-10-21T05:43:14.193Z,19.38
2022-10-21T05:46:16.613Z,19.38
2022-10-21T05:49:18.754Z,19.35
2022-10-21T05:52:21.257Z,19.38
2022-10-21T05:55:23.370Z,19.38
2022-10-21T05:58:27.511Z,19.35
2022-10-21T06:01:29.472Z,19.38
2022-10-21T06:04:36.324Z,19.34
2022-10-21T06:07:41.243Z,19.34
2022-10-21T06:10:44.638Z,19.35
2022-10-21T06:13:47.600Z,19.34
2022-10-21T06:16:50.197Z,19.34
2022-10-21T06:19:53.098Z,19.32
2022-10-21T06:22:55.766Z,19.31
2022-10-21T06:26:24.393Z,19.28
2022-10-21T06:29:28.123Z,19.31
2022-10-21T06:32:30.217Z,19.30
2022-10-21T06:35:32.910Z,19.31
2022-10-21T06:38:37.466Z,19.31
2022-10-21T06:41:39.919Z,19.31
2022-10-21T06:44:42.999Z,19.32
2022-10-21T06:47:46.027Z,19.34
2022-10-21T06:50:48.018Z,19.32
2022-10-21T06:53:57.128Z,19.34
2022-10-21T06:56:59.183Z,19.36
2022-10-21T07:00:02.518Z,19.35
2022-10-21T07:03:04.694Z,19.36
2022-10-21T07:06:07.273Z,19.38
2022-10-21T07:09:10.233Z,19.38
2022-10-21T07:12:14.119Z,19.36
2022-10-21T07:15:16.158Z,19.41
2022-10-21T07:18:18.838Z,19.41
2022-10-21T07:21:24.317Z,19.41
2022-10-21T07:24:26.774Z,19.39
2022-10-21T07:27:29.048Z,19.39
2022-10-21T07:30:31.378Z,19.42
2022-10-21T07:33:35.406Z,19.39
2022-10-21T07:36:40.782Z,19.38
2022-10-21T07:39:43.275Z,19.41
2022-10-21T07:42:45.674Z,19.38
2022-10-21T07:45:47.719Z,19.42
2022-10-21T07:48:51.342Z,19.42
2022-10-21T07:51:54.664Z,19.45
2022-10-21T07:54:56.862Z,19.44
2022-10-21T07:57:59.985Z,19.45
2022-10-21T08:01:05.278Z,19.50
2022-10-21T08:04:08.610Z,19.45
2022-10-21T08:07:13.211Z,19.48
2022-10-21T08:10:16.575Z,19.47
2022-10-21T08:13:20.902Z,19.51
2022-10-21T08:16:24.611Z,19.50
2022-10-21T08:19:30.746Z,19.50
2022-10-21T08:22:32.851Z,19.55
2022-10-21T08:25:35.644Z,19.62
2022-10-21T08:28:38.192Z,19.61
2022-10-21T08:31:40.899Z,19.65
2022-10-21T08:34:44.568Z,19.63
2022-10-21T08:37:49.372Z,19.62
2022-10-21T08:40:54.935Z,19.61
2022-10-21T08:44:06.837Z,19.61
2022-10-21T08:47:28.110Z,19.61
2022-10-21T08:50:40.132Z,19.63
2022-10-21T08:53:48.975Z,19.63
2022-10-21T08:56:56.959Z,19.63
2022-10-21T08:59:59.081Z,19.66
2022-10-21T09:03:10.375Z,19.68
2022-10-21T09:06:15.763Z,19.65
2022-10-21T09:09:38.937Z,19.63
2022-10-21T09:13:03.773Z,19.66
2022-10-21T09:16:15.211Z,19.65
2022-10-21T09:19:17.352Z,19.68
2022-10-21T09:22:41.308Z,19.71
2022-10-21T09:25:56.535Z,19.85
2022-10-21T09:29:03.890Z,19.93
2022-10-21T09:32:17.518Z,20.02
2022-10-21T09:35:26.930Z,20.08
2022-10-21T09:38:45.403Z,20.16
2022-10-21T09:41:59.139Z,20.20
2022-10-21T09:45:04.670Z,20.26
2022-10-21T09:48:20.563Z,20.32
2022-10-21T09:51:35.416Z,20.37
2022-10-21T09:54:42.302Z,20.40
2022-10-21T09:58:01.032Z,20.41
2022-10-21T10:01:05.997Z,20.44
2022-10-21T10:04:21.209Z,20.50
2022-10-21T10:07:26.418Z,20.53
2022-10-21T10:10:32.355Z,20.53
2022-10-21T10:13:37.884Z,20.57
2022-10-21T10:16:40.017Z,20.60
2022-10-21T10:19:42.570Z,20.63
2022-10-21T10:22:48.599Z,20.64
2022-10-21T10:25:53.235Z,20.68
2022-10-21T10:29:03.555Z,20.73
2022-10-21T10:32:14.923Z,20.74
2022-10-21T10:35:31.301Z,20.77
2022-10-21T10:38:40.281Z,20.78
2022-10-21T10:41:47.766Z,20.81
2022-10-21T10:44:57.412Z,20.90
2022-10-21T10:48:03.425Z,20.95
2022-10-21T10:51:26.320Z,20.95
2022-10-21T10:54:28.617Z,20.95
2022-10-21T10:57:40.326Z,21.01
2022-10-21T11:00:58.203Z,20.97
2022-10-21T11:04:13.538Z,21.02
2022-10-21T11:07:27.546Z,21.04
2022-10-21T11:10:55.179Z,21.07
2022-10-21T11:13:57.946Z,21.07
2022-10-21T11:17:13.220Z,21.07
2022-10-21T11:20:45.011Z,21.07
2022-10-21T11:24:28.932Z,21.11
2022-10-21T11:27:39.485Z,21.15
2022-10-21T11:30:42.095Z,21.14
2022-10-21T11:33:59.542Z,21.15
2022-10-21T11:37:18.287Z,21.19
2022-10-21T11:40:41.289Z,21.19
2022-10-21T11:44:17.680Z,21.24
2022-10-21T11:48:10.148Z,21.25
2022-10-21T11:51:38.425Z,21.27
2022-10-21T11:55:10.074Z,21.28
2022-10-21T11:59:11.121Z,21.31
2022-10-21T12:02:27.046Z,21.31
2022-10-21T12:05:39.726Z,21.31
2022-10-21T12:09:00.478Z,21.34
2022-10-21T12:12:07.759Z,21.35
2022-10-21T12:15:21.274Z,21.35
2022-10-21T12:18:27.759Z,21.37
2022-10-21T12:21:33.754Z,21.42
2022-10-21T12:24:52.130Z,21.41
2022-10-21T12:28:06.106Z,21.43
2022-10-21T12:31:22.923Z,21.48
2022-10-21T12:34:25.286Z,21.48
2022-10-21T12:37:52.791Z,21.48
2022-10-21T12:41:36.067Z,21.48
2022-10-21T12:44:56.651Z,21.49
2022-10-21T12:52:41.831Z,21.50
2022-10-21T12:56:01.417Z,21.52
2022-10-21T12:59:07.280Z,21.52
2022-10-21T13:02:30.658Z,21.50
2022-10-21T13:05:46.914Z,21.52
2022-10-21T13:08:55.088Z,21.52
2022-10-21T13:12:10.581Z,21.55
2022-10-21T13:15:21.844Z,21.60
2022-10-21T13:19:09.093Z,21.65
2022-10-21T13:22:14.948Z,21.69
2022-10-21T13:25:25.717Z,21.72
2022-10-21T13:28:28.870Z,21.69
2022-10-21T13:31:31.608Z,21.75
2022-10-21T13:34:40.160Z,21.75
2022-10-21T13:37:55.326Z,21.76
2022-10-21T13:41:02.681Z,21.78
2022-10-21T13:44:07.355Z,21.82
2022-10-21T13:47:30.625Z,21.83
2022-10-21T13:50:38.976Z,21.88
2022-10-21T13:53:46.125Z,21.86
2022-10-21T13:56:48.740Z,21.92
2022-10-21T14:00:17.370Z,21.94
2022-10-21T14:03:21.922Z,21.94
2022-10-21T14:06:32.037Z,21.96
2022-10-21T14:09:40.577Z,21.97
2022-10-21T14:12:45.208Z,21.99
2022-10-21T14:15:49.272Z,21.99
2022-10-21T14:18:51.511Z,22.00
2022-10-21T14:21:57.279Z,22.02
2022-10-21T14:25:02.972Z,22.03
2022-10-21T14:28:06.003Z,22.06
2022-10-21T14:31:12.393Z,22.07
2022-10-21T14:34:26.801Z,22.10
2022-10-21T14:37:45.289Z,22.12
2022-10-21T14:40:58.411Z,22.09
2022-10-21T14:44:18.249Z,22.12
2022-10-21T14:47:24.444Z,22.12
2022-10-21T14:50:26.960Z,22.13
2022-10-21T14:53:35.342Z,22.14
2022-10-21T14:56:41.331Z,22.09
2022-10-21T14:59:44.037Z,22.12
2022-10-21T15:02:46.993Z,22.12
2022-10-21T15:05:50.003Z,22.12
2022-10-21T15:09:06.909Z,22.12
2022-10-21T15:12:19.342Z,22.09
2022-10-21T15:15:40.571Z,22.07
2022-10-21T15:18:44.675Z,22.12
2022-10-21T15:21:53.519Z,22.13
2022-10-21T15:25:08.053Z,22.09
2022-10-21T15:28:16.361Z,22.09
2022-10-21T15:31:27.588Z,22.09
2022-10-21T15:34:31.406Z,22.09
2022-10-21T15:37:34.133Z,22.07
2022-10-21T15:40:37.474Z,22.03
2022-10-21T15:43:40.721Z,22.03
2022-10-21T15:46:46.970Z,22.02
2022-10-21T15:49:49.520Z,22.00
2022-10-21T15:52:52.910Z,21.97
2022-10-21T15:55:55.139Z,21.97
2022-10-21T15:58:57.426Z,21.94
2022-10-21T16:02:00.790Z,21.93
2022-10-21T16:05:03.763Z,21.93
2022-10-21T16:08:05.755Z,21.90
2022-10-21T16:11:13.472Z,21.90
2022-10-21T16:14:16.799Z,21.86
2022-10-21T16:17:19.590Z,21.85
2022-10-21T16:20:27.801Z,21.85
2022-10-21T16:23:32.183Z,21.82
2022-10-21T16:26:38.979Z,21.78
2022-10-21T16:29:42.021Z,21.80
2022-10-21T16:32:44.489Z,21.83
2022-10-21T16:35:48.921Z,21.85
2022-10-21T16:38:52.763Z,21.85
2022-10-21T16:41:56.230Z,21.85
2022-10-21T16:44:58.594Z,21.86
2022-10-21T16:48:03.364Z,21.92
2022-10-21T16:51:06.638Z,21.88
2022-10-21T16:54:10.215Z,21.90
2022-10-21T16:57:12.301Z,21.92
2022-10-21T17:00:15.566Z,21.92
2022-10-21T17:03:18.079Z,21.92
2022-10-21T17:06:25.627Z,21.96
2022-10-21T17:09:27.614Z,21.93
2022-10-21T17:12:32.934Z,21.93
2022-10-21T17:15:35.705Z,21.92
2022-10-21T17:18:38.679Z,21.92
2022-10-21T17:21:41.195Z,21.90
2022-10-21T17:24:44.581Z,21.92
2022-10-21T17:27:46.641Z,21.93
2022-10-21T17:30:49.625Z,21.97
2022-10-21T17:33:54.317Z,22.00
2022-10-21T17:36:57.423Z,22.00
2022-10-21T17:39:59.462Z,21.97
2022-10-21T17:43:01.848Z,21.97
2022-10-21T17:46:04.391Z,21.99
2022-10-21T17:49:07.120Z,21.99
2022-10-21T17:52:11.375Z,21.94
2022-10-21T17:55:14.057Z,21.97
2022-10-21T17:58:16.326Z,21.96
2022-10-21T18:01:19.052Z,21.99
2022-10-21T18:04:21.234Z,21.99
2022-10-21T18:07:23.881Z,21.97
2022-10-21T18:10:25.953Z,21.96
2022-10-21T18:13:31.472Z,21.97
2022-10-21T18:16:33.544Z,22.00
2022-10-21T18:19:36.438Z,21.94
2022-10-21T18:22:39.781Z,21.97
2022-10-21T18:25:42.668Z,21.93
2022-10-21T18:28:45.271Z,21.94
2022-10-21T18:31:48.000Z,21.99
2022-10-21T18:34:51.148Z,22.02
2022-10-21T18:37:54.279Z,22.03
2022-10-21T18:41:15.175Z,22.00
2022-10-21T18:44:18.747Z,22.00
2022-10-21T18:47:21.059Z,22.00
2022-10-21T18:50:23.391Z,21.96
2022-10-21T18:53:25.331Z,21.96
2022-10-21T18:56:27.953Z,21.92
2022-10-21T18:59:29.961Z,21.94
2022-10-21T19:02:32.512Z,21.93
2022-10-21T19:05:34.673Z,21.97
2022-10-21T19:08:37.041Z,22.00
2022-10-21T19:11:42.495Z,22.02
2022-10-21T19:14:45.408Z,21.94
2022-10-21T19:17:47.758Z,21.94
2022-10-21T19:20:49.995Z,21.97
2022-10-21T19:23:53.019Z,21.96
2022-10-21T19:26:57.853Z,21.90
2022-10-21T19:30:00.094Z,21.88
2022-10-21T19:33:02.691Z,21.88
2022-10-21T19:36:06.318Z,21.88
2022-10-21T19:39:08.711Z,21.83
2022-10-21T19:42:11.340Z,21.85
2022-10-21T19:45:17.400Z,21.86
2022-10-21T19:48:20.319Z,21.85
2022-10-21T19:51:24.755Z,21.83
2022-10-21T19:54:27.424Z,21.86
2022-10-21T19:57:29.554Z,21.86
2022-10-21T20:00:31.678Z,21.90
2022-10-21T20:03:33.860Z,21.93
2022-10-21T20:06:38.018Z,21.93
2022-10-21T20:09:40.379Z,21.96
2022-10-21T20:12:42.501Z,21.97
2022-10-21T20:15:47.711Z,21.78
2022-10-21T20:18:50.373Z,21.67
2022-10-21T20:21:52.682Z,21.58
2022-10-21T20:24:54.702Z,21.49
2022-10-21T20:27:57.332Z,21.45
2022-10-21T20:31:15.633Z,21.41
2022-10-21T20:34:17.979Z,21.39
2022-10-21T20:37:21.067Z,21.32
2022-10-21T20:40:27.301Z,21.28
2022-10-21T20:43:30.158Z,21.25
2022-10-21T20:46:35.365Z,21.19
2022-10-21T20:49:37.684Z,21.15
2022-10-21T20:52:40.163Z,21.17
2022-10-21T20:55:43.166Z,21.22
2022-10-21T20:58:45.470Z,21.31
2022-10-21T21:01:47.677Z,21.35
2022-10-21T21:04:50.506Z,21.41
2022-10-21T21:07:52.965Z,21.41
2022-10-21T21:11:04.323Z,21.43
2022-10-21T21:14:06.515Z,21.46
2022-10-21T21:17:08.663Z,21.48
2022-10-21T21:20:10.849Z,21.50
2022-10-21T21:23:13.370Z,21.49
2022-10-21T21:26:22.571Z,21.55
2022-10-21T21:29:24.961Z,21.55
2022-10-21T21:32:26.980Z,21.58
2022-10-21T21:35:29.708Z,21.60
2022-10-21T21:38:34.703Z,21.59
2022-10-21T21:41:38.154Z,21.59
2022-10-21T21:44:40.281Z,21.59
2022-10-21T21:47:42.684Z,21.62
2022-10-21T21:50:45.344Z,21.58
2022-10-21T21:53:48.576Z,21.60
2022-10-21T21:56:54.456Z,21.62
2022-10-21T22:00:04.256Z,21.65
2022-10-21T22:03:08.379Z,21.70
2022-10-21T22:06:11.510Z,21.70
2022-10-21T22:09:13.499Z,21.75
2022-10-21T22:12:17.042Z,21.70
2022-10-21T22:15:46.600Z,21.67
2022-10-21T22:18:44.072Z,21.66
2022-10-21T22:21:47.359Z,21.66
2022-10-21T22:24:49.959Z,21.69
2022-10-21T22:27:52.282Z,21.70
2022-10-21T22:31:03.558Z,21.72
2022-10-21T22:34:09.257Z,21.75
2022-10-21T22:37:14.649Z,21.72
2022-10-21T22:40:17.246Z,21.67
2022-10-21T22:43:19.419Z,21.62
2022-10-21T22:46:32.966Z,21.67
2022-10-21T22:49:36.102Z,21.72
2022-10-21T22:52:38.389Z,21.72
2022-10-21T22:55:41.104Z,21.70
2022-10-21T22:58:42.986Z,21.75
2022-10-21T23:01:45.694Z,21.75
2022-10-21T23:04:47.758Z,21.75
2022-10-21T23:07:50.703Z,21.59
2022-10-21T23:10:52.835Z,21.48
2022-10-21T23:14:02.647Z,21.42
2022-10-21T23:17:05.695Z,21.32
2022-10-21T23:20:08.682Z,21.32
2022-10-21T23:23:11.400Z,21.24
2022-10-21T23:26:14.211Z,21.21
2022-10-21T23:29:16.260Z,21.19
2022-10-21T23:32:18.507Z,21.12
2022-10-21T23:35:21.319Z,21.09
2022-10-21T23:38:24.422Z,21.07
2022-10-21T23:41:27.411Z,21.05
2022-10-21T23:44:29.851Z,21.01
2022-10-21T23:47:32.796Z,21.01
2022-10-21T23:50:37.205Z,20.98
2022-10-21T23:53:40.930Z,20.95
2022-10-21T23:56:43.549Z,20.95
2022-10-21T23:59:45.868Z,20.92
